createdAt,value
2018-04-13T00:01:09.075Z,11.17
2018-04-13T00:03:38.988Z,10.57
2018-04-13T00:06:08.318Z,12.30
2018-04-13T00:08:39.130Z,10.30
2018-04-13T00:11:08.638Z,11.63
2018-04-13T00:13:37.939Z,11.70
2018-04-13T00:16:07.206Z,10.90
2018-04-13T00:18:36.393Z,10.30
2018-04-13T00:21:05.558Z,10.73
2018-04-13T00:23:35.557Z,10.53
2018-04-13T00:26:05.050Z,11.80
2018-04-13T00:28:34.259Z,10.13
2018-04-13T00:31:03.324Z,10.23
2018-04-13T00:33:32.514Z,9.53
2018-04-13T00:36:01.788Z,9.43
2018-04-13T00:38:31.158Z,10.90
2018-04-13T00:41:01.252Z,10.10
2018-04-13T00:43:30.681Z,11.90
2018-04-13T00:46:00.795Z,10.13
2018-04-13T00:48:30.106Z,9.70
2018-04-13T00:50:59.518Z,10.50
2018-04-13T00:53:30.441Z,10.53
2018-04-13T00:56:00.777Z,10.40
2018-04-13T00:58:30.113Z,10.13
2018-04-13T01:00:59.182Z,10.37
2018-04-13T01:03:28.579Z,10.40
2018-04-13T01:05:58.737Z,9.17
2018-04-13T01:08:28.003Z,9.87
2018-04-13T01:10:57.253Z,9.67
2018-04-13T01:13:26.606Z,10.47
2018-04-13T01:15:56.013Z,10.83
2018-04-13T01:18:25.114Z,10.80
2018-04-13T01:20:54.522Z,11.60
2018-04-13T01:23:23.816Z,10.67
2018-04-13T01:25:52.987Z,10.73
2018-04-13T01:28:22.478Z,9.63
2018-04-13T01:30:52.605Z,9.10
2018-04-13T01:33:22.042Z,9.70
2018-04-13T01:35:51.449Z,9.40
2018-04-13T01:38:20.651Z,10.10
2018-04-13T01:40:50.023Z,9.50
2018-04-13T01:43:19.211Z,10.40
2018-04-13T01:45:48.758Z,9.13
2018-04-13T01:48:17.962Z,9.30
2018-04-13T01:50:47.293Z,9.80
2018-04-13T01:53:16.464Z,8.43
2018-04-13T01:55:45.729Z,9.03
2018-04-13T01:58:15.166Z,10.57
2018-04-13T02:00:44.575Z,10.10
2018-04-13T02:03:13.870Z,9.03
2018-04-13T02:05:43.134Z,9.50
2018-04-13T02:08:12.331Z,8.33
2018-04-13T02:10:42.535Z,8.40
2018-04-13T02:13:11.626Z,10.13
2018-04-13T02:15:40.904Z,9.83
2018-04-13T02:18:10.810Z,9.90
2018-04-13T02:20:41.031Z,9.03
2018-04-13T02:23:10.335Z,9.40
2018-04-13T02:25:40.554Z,9.53
2018-04-13T02:28:09.966Z,10.37
2018-04-13T02:30:39.194Z,9.50
2018-04-13T02:33:09.173Z,9.27
2018-04-13T02:35:38.850Z,9.10
2018-04-13T02:38:07.928Z,10.20
2018-04-13T02:40:37.026Z,9.07
2018-04-13T02:43:07.036Z,10.13
2018-04-13T02:45:36.850Z,9.67
2018-04-13T02:48:05.902Z,9.77
2018-04-13T02:50:35.068Z,9.13
2018-04-13T02:53:04.493Z,10.60
2018-04-13T02:55:34.439Z,8.83
2018-04-13T02:58:04.270Z,10.00
2018-04-13T03:00:33.653Z,9.50
2018-04-13T03:03:04.291Z,9.37
2018-04-13T03:05:33.519Z,9.93
2018-04-13T03:08:03.526Z,10.33
2018-04-13T03:10:33.531Z,10.00
2018-04-13T03:13:03.440Z,9.80
2018-04-13T03:15:33.550Z,10.70
2018-04-13T03:18:02.679Z,9.40
2018-04-13T03:20:31.852Z,10.40
2018-04-13T03:23:00.845Z,9.53
2018-04-13T03:25:30.818Z,8.57
2018-04-13T03:28:00.091Z,9.70
2018-04-13T03:30:29.266Z,9.80
2018-04-13T03:32:58.471Z,9.40
2018-04-13T03:35:28.885Z,10.27
2018-04-13T03:37:58.090Z,9.97
2018-04-13T03:40:27.326Z,10.23
2018-04-13T03:42:56.278Z,9.90
2018-04-13T03:45:26.331Z,10.00
2018-04-13T03:47:55.507Z,10.33
2018-04-13T03:50:24.707Z,11.57
2018-04-13T03:52:53.812Z,11.63
2018-04-13T03:55:23.138Z,9.77
2018-04-13T03:57:53.037Z,11.40
2018-04-13T04:00:22.997Z,9.33
2018-04-13T04:02:52.495Z,9.60
2018-04-13T04:05:21.841Z,10.30
2018-04-13T04:07:51.043Z,10.73
2018-04-13T04:10:20.410Z,11.13
2018-04-13T04:12:49.434Z,8.40
2018-04-13T04:15:18.599Z,10.80
2018-04-13T04:17:48.003Z,8.83
2018-04-13T04:20:38.643Z,9.17
2018-04-13T04:23:18.986Z,9.20
2018-04-13T04:26:02.113Z,8.60
2018-04-13T04:28:31.948Z,10.17
2018-04-13T04:31:01.715Z,10.33
2018-04-13T04:33:31.065Z,9.80
2018-04-13T04:36:00.490Z,10.77
2018-04-13T04:38:29.454Z,9.80
2018-04-13T04:40:59.301Z,9.10
2018-04-13T04:43:29.314Z,8.10
2018-04-13T04:46:00.262Z,9.57
2018-04-13T04:48:29.456Z,10.10
2018-04-13T04:50:59.661Z,9.47
2018-04-13T04:53:28.759Z,9.97
2018-04-13T04:55:58.013Z,9.70
2018-04-13T04:58:27.051Z,9.90
2018-04-13T05:00:56.155Z,8.77
2018-04-13T05:03:26.266Z,8.90
2018-04-13T05:05:56.417Z,10.40
2018-04-13T05:08:25.491Z,9.00
2018-04-13T05:10:54.689Z,10.00
2018-04-13T05:13:23.878Z,9.17
2018-04-13T05:15:53.306Z,9.30
2018-04-13T05:18:22.468Z,10.47
2018-04-13T05:20:51.478Z,10.10
2018-04-13T05:23:20.847Z,10.03
2018-04-13T05:25:50.185Z,8.60
2018-04-13T05:28:20.011Z,10.10
2018-04-13T05:30:49.134Z,9.37
2018-04-13T05:33:19.113Z,8.67
2018-04-13T05:35:48.394Z,9.67
2018-04-13T05:38:17.418Z,11.30
2018-04-13T05:40:46.613Z,8.70
2018-04-13T05:43:16.630Z,9.70
2018-04-13T05:45:46.882Z,11.87
2018-04-13T05:48:16.050Z,11.83
2018-04-13T05:50:46.391Z,11.63
2018-04-13T05:53:15.479Z,11.10
2018-04-13T05:55:44.852Z,11.37
2018-04-13T05:58:13.971Z,11.60
2018-04-13T06:00:44.104Z,10.23
2018-04-13T06:03:14.174Z,11.63
2018-04-13T06:05:43.447Z,11.27
2018-04-13T06:08:12.622Z,11.30
2018-04-13T06:10:42.837Z,11.30
2018-04-13T06:13:12.646Z,12.40
2018-04-13T06:15:42.778Z,12.23
2018-04-13T06:18:12.694Z,13.20
2018-04-13T06:20:42.778Z,12.90
2018-04-13T06:23:11.854Z,12.27
2018-04-13T06:25:42.034Z,12.57
2018-04-13T06:28:11.058Z,13.07
2018-04-13T06:30:41.175Z,14.48
2018-04-13T06:33:11.322Z,11.68
2018-04-13T06:35:40.873Z,17.15
2018-04-13T06:38:10.954Z,14.00
2018-04-13T06:40:40.397Z,13.50
2018-04-13T06:43:10.370Z,13.50
2018-04-13T06:45:39.714Z,13.90
2018-04-13T06:48:08.843Z,15.90
2018-04-13T06:50:38.223Z,14.10
2018-04-13T06:53:08.266Z,14.60
2018-04-13T06:55:37.642Z,14.77
2018-04-13T06:58:06.743Z,13.67
2018-04-13T07:00:36.754Z,13.70
2018-04-13T07:03:06.567Z,14.50
2018-04-13T07:05:36.599Z,13.67
2018-04-13T07:08:06.672Z,12.80
2018-04-13T07:10:36.019Z,13.57
2018-04-13T07:13:06.090Z,13.83
2018-04-13T07:15:35.468Z,15.23
2018-04-13T07:18:05.138Z,13.50
2018-04-13T07:20:34.313Z,12.73
2018-04-13T07:23:03.294Z,15.43
2018-04-13T07:25:32.946Z,13.50
2018-04-13T07:28:02.070Z,12.20
2018-04-13T07:30:31.454Z,12.17
2018-04-13T07:33:00.588Z,13.37
2018-04-13T07:35:29.823Z,12.53
2018-04-13T07:37:59.518Z,12.57
2018-04-13T07:40:29.044Z,14.70
2018-04-13T07:42:58.057Z,15.20
2018-04-13T07:45:28.285Z,14.40
2018-04-13T07:47:58.097Z,13.83
2018-04-13T07:50:28.045Z,15.57
2018-04-13T07:52:57.143Z,13.03
2018-04-13T07:55:27.163Z,14.23
2018-04-13T07:57:56.431Z,13.43
2018-04-13T08:00:26.356Z,13.63
2018-04-13T08:02:55.239Z,12.30
2018-04-13T08:05:24.390Z,13.30
2018-04-13T08:07:53.381Z,13.80
2018-04-13T08:10:22.895Z,13.60
2018-04-13T08:12:52.241Z,13.27
2018-04-13T08:15:22.458Z,12.70
2018-04-13T08:17:52.374Z,10.80
2018-04-13T08:20:22.884Z,12.43
2018-04-13T08:22:51.963Z,12.90
2018-04-13T08:25:21.111Z,12.03
2018-04-13T08:27:50.259Z,13.07
2018-04-13T08:30:19.707Z,11.77
2018-04-13T08:32:48.935Z,12.97
2018-04-13T08:35:18.314Z,13.43
2018-04-13T08:37:48.426Z,12.90
2018-04-13T08:40:17.628Z,12.80
2018-04-13T08:42:47.019Z,13.23
2018-04-13T08:45:16.243Z,11.70
2018-04-13T08:47:47.774Z,11.90
2018-04-13T08:50:25.384Z,11.97
2018-04-13T08:52:56.791Z,11.30
2018-04-13T08:58:45.627Z,9.77
2018-04-13T09:01:15.119Z,10.83
2018-04-13T09:03:46.816Z,11.53
2018-04-13T09:06:16.123Z,12.30
2018-04-13T09:11:59.543Z,10.50
2018-04-13T09:14:43.513Z,10.83
2018-04-13T09:17:21.074Z,10.63
2018-04-13T09:19:51.553Z,11.67
2018-04-13T09:22:21.893Z,9.73
2018-04-13T09:24:52.395Z,10.40
2018-04-13T09:27:26.145Z,10.03
2018-04-13T09:29:56.290Z,12.07
2018-04-13T09:32:26.351Z,11.07
2018-04-13T09:34:55.670Z,10.70
2018-04-13T09:37:24.921Z,11.40
